Time;durP1;ratioP1;P1;durP2;ratioP2;P2;SDS_P1;SDS_P2;PMS_P1;PMS_P2;Temp;Humidity;BMP_temperature;BMP_pressure;BME280_temperature;BME280_humidity;BME280_pressure;Samples;Min_cycle;Max_cycle;Signal;HPM_P1;HPM_P2
2023/07/24 00:00:17;;;;;;;8.55;4.78;;;16.40;99.90;;;;;;5087794;27;20110;-83
2023/07/24 00:02:43;;;;;;;8.55;5.05;;;16.40;99.90;;;;;;5129785;27;20042;-82
2023/07/24 00:05:10;;;;;;;10.55;5.22;;;16.40;99.90;;;;;;5102349;27;20028;-83
2023/07/24 00:07:36;;;;;;;8.10;4.90;;;16.30;99.90;;;;;;5099835;27;20705;-83
2023/07/24 00:10:02;;;;;;;11.52;4.80;;;16.30;99.90;;;;;;5092583;27;20511;-83
2023/07/24 00:12:27;;;;;;;11.18;5.05;;;16.30;99.90;;;;;;5097331;27;20081;-84
2023/07/24 00:14:53;;;;;;;8.10;4.97;;;16.30;99.90;;;;;;5111855;27;20061;-83
2023/07/24 00:17:19;;;;;;;8.90;4.95;;;16.30;99.90;;;;;;5098618;27;20072;-83
2023/07/24 00:19:44;;;;;;;6.93;4.90;;;16.30;99.90;;;;;;5109844;27;20035;-83
2023/07/24 00:22:10;;;;;;;9.52;5.55;;;16.20;99.90;;;;;;5128216;27;20027;-83
2023/07/24 00:24:36;;;;;;;8.23;5.15;;;16.30;99.90;;;;;;5090120;27;20418;-83
2023/07/24 00:27:02;;;;;;;10.18;5.03;;;16.20;99.90;;;;;;5109484;27;20044;-83
2023/07/24 00:29:28;;;;;;;10.90;4.97;;;16.20;99.90;;;;;;5082259;27;20039;-83
2023/07/24 00:31:54;;;;;;;11.93;5.28;;;16.20;99.90;;;;;;5115970;27;20037;-83
2023/07/24 00:34:19;;;;;;;9.15;5.22;;;16.10;99.90;;;;;;5095805;27;20039;-83
2023/07/24 00:36:45;;;;;;;9.55;4.93;;;16.20;99.90;;;;;;5092018;27;20563;-83
2023/07/24 00:39:11;;;;;;;8.80;4.97;;;16.10;99.90;;;;;;5111573;27;20087;-83
2023/07/24 00:41:36;;;;;;;8.63;4.75;;;16.10;99.90;;;;;;5108260;27;20296;-83
2023/07/24 00:44:02;;;;;;;10.57;5.75;;;16.10;99.90;;;;;;5082684;27;20517;-83
2023/07/24 00:46:31;;;;;;;10.38;5.40;;;16.10;99.90;;;;;;5097425;27;20043;-83
2023/07/24 00:48:59;;;;;;;8.82;5.55;;;16.10;99.90;;;;;;5084256;27;20077;-83
2023/07/24 00:51:27;;;;;;;9.02;4.93;;;16.10;99.90;;;;;;5098771;27;20526;-83
2023/07/24 00:54:01;;;;;;;9.77;5.55;;;16.20;99.90;;;;;;5110551;27;20079;-83
2023/07/24 00:56:27;;;;;;;13.65;5.97;;;16.20;99.90;;;;;;5114571;27;20435;-83
2023/07/24 00:58:57;;;;;;;10.65;5.82;;;16.30;99.90;;;;;;5128365;27;20053;-83
2023/07/24 01:01:24;;;;;;;8.50;5.50;;;16.40;99.90;;;;;;5087740;27;20047;-83
2023/07/24 01:03:52;;;;;;;8.25;5.18;;;16.40;99.90;;;;;;5109653;27;20561;-83
2023/07/24 01:06:18;;;;;;;11.20;5.25;;;16.40;99.90;;;;;;5104511;27;20394;-83
2023/07/24 01:08:43;;;;;;;8.23;5.10;;;16.40;99.90;;;;;;5103969;27;20058;-83
2023/07/24 01:11:18;;;;;;;10.20;5.55;;;16.50;99.90;;;;;;5082948;27;20287;-83
2023/07/24 01:14:02;;;;;;;9.48;5.63;;;16.50;99.90;;;;;;5104771;27;20088;-83
2023/07/24 01:16:36;;;;;;;8.88;5.65;;;16.50;99.90;;;;;;5107969;27;20119;-83
2023/07/24 01:19:05;;;;;;;11.13;6.00;;;16.40;99.90;;;;;;5084789;27;20027;-83
2023/07/24 01:21:43;;;;;;;8.50;5.38;;;16.30;99.90;;;;;;5091992;27;20575;-83
2023/07/24 01:24:22;;;;;;;11.32;5.93;;;16.30;99.90;;;;;;5103015;27;20043;-83
2023/07/24 01:26:48;;;;;;;8.45;6.10;;;16.30;99.90;;;;;;5101956;27;20551;-83
2023/07/24 01:29:13;;;;;;;12.13;5.95;;;16.20;99.90;;;;;;5111619;27;20048;-82
2023/07/24 01:31:39;;;;;;;9.55;6.07;;;16.10;99.90;;;;;;5089601;27;20154;-84
2023/07/24 01:34:05;;;;;;;10.85;6.55;;;16.10;99.90;;;;;;5113992;27;20107;-82
2023/07/24 01:36:31;;;;;;;12.85;7.10;;;16.10;99.90;;;;;;5115059;27;20031;-83
2023/07/24 01:38:56;;;;;;;11.23;6.85;;;16.10;99.90;;;;;;5109883;27;20393;-83
2023/07/24 01:41:23;;;;;;;9.90;6.65;;;16.10;99.90;;;;;;5119257;27;20036;-83
2023/07/24 01:43:49;;;;;;;10.25;6.38;;;16.00;99.90;;;;;;5120714;27;20108;-83
2023/07/24 01:46:14;;;;;;;12.93;7.32;;;16.10;99.90;;;;;;5087206;27;20046;-83
2023/07/24 01:48:43;;;;;;;13.25;8.18;;;16.10;99.90;;;;;;5094537;27;20221;-83
2023/07/24 01:51:08;;;;;;;13.45;8.20;;;16.20;99.90;;;;;;5130047;27;20050;-83
2023/07/24 01:53:34;;;;;;;14.15;9.00;;;16.10;99.90;;;;;;5114794;27;20036;-83
2023/07/24 01:56:00;;;;;;;14.23;8.88;;;16.20;99.90;;;;;;5111125;27;20111;-83
2023/07/24 01:58:25;;;;;;;14.85;9.32;;;16.20;99.90;;;;;;5095958;27;20050;-83
2023/07/24 02:00:51;;;;;;;13.35;8.77;;;16.20;99.90;;;;;;5111204;27;20431;-83
2023/07/24 02:03:16;;;;;;;12.32;8.48;;;16.30;99.90;;;;;;5087704;27;20028;-84
2023/07/24 02:05:42;;;;;;;12.65;8.77;;;16.30;99.90;;;;;;5097144;27;20447;-84
2023/07/24 02:08:07;;;;;;;14.65;8.85;;;16.30;99.90;;;;;;5087278;27;20172;-83
2023/07/24 02:10:37;;;;;;;13.93;8.93;;;16.30;99.90;;;;;;5110838;27;20579;-83
2023/07/24 02:13:03;;;;;;;12.95;8.52;;;16.40;99.90;;;;;;5106261;27;20031;-83
2023/07/24 02:15:31;;;;;;;11.38;8.05;;;16.40;99.90;;;;;;5107701;27;20130;-83
2023/07/24 02:17:57;;;;;;;14.77;9.32;;;16.30;99.90;;;;;;5102173;27;20386;-83
2023/07/24 02:20:22;;;;;;;11.52;7.97;;;16.40;99.90;;;;;;5087579;27;20040;-83
2023/07/24 02:22:48;;;;;;;14.43;8.05;;;16.30;99.90;;;;;;5093341;27;20038;-84
2023/07/24 02:25:14;;;;;;;13.20;8.23;;;16.40;99.90;;;;;;5110771;27;20038;-83
2023/07/24 02:27:40;;;;;;;12.68;8.15;;;16.40;99.90;;;;;;5108414;27;20421;-83
2023/07/24 02:30:06;;;;;;;11.52;7.57;;;16.40;99.90;;;;;;5087716;27;20138;-84
2023/07/24 02:32:32;;;;;;;12.32;7.72;;;16.40;99.90;;;;;;5087236;27;20043;-83
2023/07/24 02:34:57;;;;;;;13.50;8.50;;;16.40;99.90;;;;;;5089764;27;20043;-83
2023/07/24 02:37:23;;;;;;;12.52;7.95;;;16.40;99.90;;;;;;5120178;27;20047;-83
2023/07/24 02:39:49;;;;;;;11.90;7.65;;;16.40;99.90;;;;;;5094408;27;20041;-83
2023/07/24 02:42:14;;;;;;;12.98;8.07;;;16.40;99.90;;;;;;5088293;27;20037;-84
2023/07/24 02:44:40;;;;;;;13.77;7.93;;;16.30;99.90;;;;;;5091609;27;20073;-84
2023/07/24 02:47:06;;;;;;;12.05;7.45;;;16.40;99.90;;;;;;5099892;27;20459;-83
2023/07/24 02:49:32;;;;;;;12.93;7.97;;;16.40;99.90;;;;;;5099972;27;20059;-83
2023/07/24 02:51:58;;;;;;;11.45;7.28;;;16.30;99.90;;;;;;5113600;27;20340;-84
2023/07/24 02:54:26;;;;;;;14.13;7.40;;;16.30;99.90;;;;;;5110406;27;20027;-83
2023/07/24 02:56:51;;;;;;;10.95;7.57;;;16.40;99.90;;;;;;5120192;27;20109;-83
2023/07/24 02:59:20;;;;;;;9.50;7.22;;;16.40;99.90;;;;;;5107282;27;20046;-83
2023/07/24 03:01:46;;;;;;;11.27;7.15;;;16.30;99.90;;;;;;5088657;27;20050;-83
2023/07/24 03:04:12;;;;;;;10.10;7.18;;;16.30;99.90;;;;;;5104926;27;20488;-83
2023/07/24 03:06:39;;;;;;;11.60;7.57;;;16.30;99.90;;;;;;5091866;27;20061;-83
2023/07/24 03:09:04;;;;;;;11.35;7.78;;;16.30;99.90;;;;;;5130199;27;20458;-83
2023/07/24 03:11:30;;;;;;;10.15;7.30;;;16.30;99.90;;;;;;5098453;27;20035;-84
2023/07/24 03:13:56;;;;;;;10.43;7.30;;;16.20;99.90;;;;;;5107377;27;20111;-83
2023/07/24 03:16:22;;;;;;;13.73;7.47;;;16.20;99.90;;;;;;5088738;27;20039;-83
2023/07/24 03:18:47;;;;;;;12.25;7.90;;;16.20;99.90;;;;;;5085598;27;20446;-83
2023/07/24 03:21:13;;;;;;;9.70;7.00;;;16.20;99.90;;;;;;5092141;27;20518;-83
2023/07/24 03:23:39;;;;;;;12.10;7.68;;;16.30;99.90;;;;;;5087249;27;20050;-83
2023/07/24 03:26:04;;;;;;;10.40;7.65;;;16.30;99.90;;;;;;5102670;27;20030;-84
2023/07/24 03:28:30;;;;;;;11.93;6.70;;;16.40;99.90;;;;;;5104511;27;20147;-84
2023/07/24 03:30:56;;;;;;;13.30;7.63;;;16.30;99.90;;;;;;5084699;27;20055;-84
2023/07/24 03:33:21;;;;;;;11.77;7.90;;;16.40;99.90;;;;;;5139527;27;20031;-84
2023/07/24 03:35:47;;;;;;;13.43;7.75;;;16.40;99.90;;;;;;5106391;27;20031;-84
2023/07/24 03:38:12;;;;;;;11.38;7.90;;;16.40;99.90;;;;;;5095914;27;20075;-84
2023/07/24 03:40:38;;;;;;;10.98;7.45;;;16.40;99.90;;;;;;5090777;27;20141;-84
2023/07/24 03:43:04;;;;;;;10.60;7.35;;;16.40;99.90;;;;;;5105750;27;20055;-84
2023/07/24 03:45:29;;;;;;;11.68;8.52;;;16.50;99.90;;;;;;5104892;27;20503;-84
2023/07/24 03:47:55;;;;;;;13.43;7.53;;;16.40;99.90;;;;;;5105018;27;20035;-84
2023/07/24 03:50:21;;;;;;;11.05;7.30;;;16.50;99.90;;;;;;5089053;27;20142;-84
2023/07/24 03:52:46;;;;;;;15.32;8.75;;;16.40;99.90;;;;;;5112466;27;20037;-84
2023/07/24 03:55:12;;;;;;;11.55;7.65;;;16.40;99.90;;;;;;5105135;27;20088;-83
2023/07/24 03:57:37;;;;;;;12.65;7.57;;;16.50;99.90;;;;;;5108556;27;20027;-83
2023/07/24 04:00:03;;;;;;;13.27;8.30;;;16.50;99.90;;;;;;5094201;27;20058;-84
2023/07/24 04:02:29;;;;;;;16.08;8.25;;;16.50;99.90;;;;;;5101926;27;20035;-84
2023/07/24 04:04:57;;;;;;;12.80;8.75;;;16.50;99.90;;;;;;5089996;27;20059;-84
2023/07/24 04:07:23;;;;;;;11.65;8.23;;;16.60;99.90;;;;;;5117403;27;20106;-84
2023/07/24 04:09:49;;;;;;;13.52;8.50;;;16.60;99.90;;;;;;5108850;27;20066;-84
2023/07/24 04:12:14;;;;;;;13.10;8.82;;;16.70;99.90;;;;;;5124855;27;20042;-84
2023/07/24 04:14:40;;;;;;;12.32;8.35;;;16.70;99.90;;;;;;5085039;27;20447;-84
2023/07/24 04:17:06;;;;;;;11.68;8.27;;;16.70;99.90;;;;;;5106109;27;20038;-84
2023/07/24 04:19:31;;;;;;;11.95;8.63;;;16.80;99.90;;;;;;5115184;27;20039;-84
2023/07/24 04:21:57;;;;;;;13.68;8.85;;;16.80;99.90;;;;;;5109393;27;20215;-83
2023/07/24 04:24:26;;;;;;;14.52;8.50;;;16.80;99.90;;;;;;5093860;27;20395;-84
2023/07/24 04:26:51;;;;;;;10.73;8.15;;;16.90;99.90;;;;;;5092497;27;20050;-84
2023/07/24 04:29:17;;;;;;;13.43;8.48;;;16.90;99.90;;;;;;5091147;27;20407;-83
2023/07/24 04:31:42;;;;;;;10.95;7.90;;;16.90;99.90;;;;;;5087376;27;20096;-83
2023/07/24 04:34:08;;;;;;;15.40;8.52;;;16.90;99.90;;;;;;5113817;27;20043;-84
2023/07/24 04:36:34;;;;;;;12.07;8.25;;;16.90;99.90;;;;;;5093800;27;20039;-84
2023/07/24 04:38:59;;;;;;;11.35;8.07;;;16.90;99.90;;;;;;5082543;27;20035;-84
2023/07/24 04:41:25;;;;;;;12.73;8.57;;;16.90;99.90;;;;;;5112292;27;20532;-84
2023/07/24 04:43:51;;;;;;;11.45;8.32;;;17.00;99.90;;;;;;5091561;27;20059;-84
2023/07/24 04:46:16;;;;;;;12.50;7.90;;;16.90;99.90;;;;;;5112927;27;20130;-83
2023/07/24 04:48:44;;;;;;;11.52;8.18;;;17.00;99.90;;;;;;5126492;27;20039;-83
2023/07/24 04:51:10;;;;;;;11.73;8.13;;;17.00;99.90;;;;;;5090896;27;20082;-83
2023/07/24 04:53:36;;;;;;;13.32;8.35;;;17.00;99.90;;;;;;5084735;27;20574;-83
2023/07/24 04:56:01;;;;;;;9.95;7.03;;;17.00;99.90;;;;;;5107429;27;20175;-84
2023/07/24 04:58:27;;;;;;;9.82;7.60;;;17.00;99.90;;;;;;5098477;27;20038;-84
2023/07/24 05:00:52;;;;;;;12.52;7.72;;;17.10;99.90;;;;;;5090050;27;20035;-84
2023/07/24 05:03:19;;;;;;;11.00;8.00;;;17.10;99.90;;;;;;5094449;27;20026;-84
2023/07/24 05:05:48;;;;;;;10.35;7.80;;;17.10;99.90;;;;;;5113044;27;20039;-84
2023/07/24 05:08:13;;;;;;;11.20;7.57;;;17.10;99.90;;;;;;5098216;27;20050;-84
2023/07/24 05:10:39;;;;;;;12.45;8.13;;;17.10;99.90;;;;;;5099679;27;20046;-84
2023/07/24 05:13:05;;;;;;;10.27;7.28;;;17.10;99.90;;;;;;5114262;27;20031;-83
2023/07/24 05:15:30;;;;;;;12.45;8.02;;;17.20;99.90;;;;;;5091779;27;20043;-84
2023/07/24 05:17:56;;;;;;;12.35;7.68;;;17.30;99.90;;;;;;5095224;27;20043;-84
2023/07/24 05:20:22;;;;;;;9.60;6.70;;;17.20;99.90;;;;;;5116449;27;20213;-84
2023/07/24 05:22:47;;;;;;;10.30;7.30;;;17.30;99.90;;;;;;5091578;27;20035;-84
2023/07/24 05:25:13;;;;;;;10.00;7.47;;;17.30;99.90;;;;;;5089880;27;20461;-83
2023/07/24 05:27:39;;;;;;;11.88;7.40;;;17.40;99.90;;;;;;5132905;27;20099;-84
2023/07/24 05:30:06;;;;;;;10.57;7.72;;;17.40;99.90;;;;;;5100790;27;20114;-83
2023/07/24 05:32:31;;;;;;;9.63;7.20;;;17.50;99.90;;;;;;5098388;27;20136;-83
2023/07/24 05:34:57;;;;;;;10.45;7.03;;;17.50;99.90;;;;;;5092547;27;20298;-83
2023/07/24 05:37:22;;;;;;;11.40;7.63;;;17.60;99.90;;;;;;5087380;27;20028;-83
2023/07/24 05:39:48;;;;;;;11.02;7.47;;;17.60;99.90;;;;;;5091776;27;20120;-84
2023/07/24 05:42:14;;;;;;;10.18;7.13;;;17.70;99.90;;;;;;5088855;27;20072;-83
2023/07/24 05:44:40;;;;;;;14.35;7.53;;;17.70;99.90;;;;;;5091030;27;20035;-84
2023/07/24 05:47:05;;;;;;;10.82;6.88;;;17.70;99.90;;;;;;5106783;27;20126;-83
2023/07/24 05:49:31;;;;;;;10.20;7.15;;;17.80;99.90;;;;;;5090220;27;20358;-83
2023/07/24 05:51:56;;;;;;;12.65;7.57;;;17.80;99.90;;;;;;5091246;27;20102;-83
2023/07/24 05:54:22;;;;;;;10.13;7.10;;;17.80;99.90;;;;;;5127734;27;20053;-83
2023/07/24 05:56:48;;;;;;;10.60;7.28;;;17.80;99.90;;;;;;5123085;27;20035;-83
2023/07/24 05:59:14;;;;;;;11.00;7.47;;;17.70;99.90;;;;;;5110808;27;20036;-83
2023/07/24 06:01:40;;;;;;;10.90;7.00;;;17.70;99.90;;;;;;5110420;27;20039;-83
2023/07/24 06:04:15;;;;;;;10.45;6.93;;;17.70;99.90;;;;;;5105038;27;20396;-83
2023/07/24 06:06:40;;;;;;;9.65;7.13;;;17.70;99.90;;;;;;5127602;27;20049;-83
2023/07/24 06:09:06;;;;;;;12.52;7.13;;;17.60;99.90;;;;;;5090781;27;20035;-83
2023/07/24 06:11:32;;;;;;;10.75;7.63;;;17.60;99.90;;;;;;5114945;27;20038;-83
2023/07/24 06:13:57;;;;;;;9.52;6.38;;;17.70;99.90;;;;;;5119891;27;20040;-83
2023/07/24 06:16:23;;;;;;;13.05;7.88;;;17.70;99.90;;;;;;5101973;27;20031;-83
2023/07/24 06:18:48;;;;;;;11.20;6.97;;;17.70;99.90;;;;;;5092512;27;20099;-83
2023/07/24 06:21:14;;;;;;;9.65;7.35;;;17.70;99.90;;;;;;5103349;27;20042;-83
2023/07/24 06:23:40;;;;;;;9.18;6.95;;;17.80;99.90;;;;;;5112601;27;20049;-83
2023/07/24 06:26:05;;;;;;;9.05;6.80;;;18.00;99.90;;;;;;5102272;27;20050;-83
2023/07/24 06:28:32;;;;;;;12.77;7.25;;;18.00;99.90;;;;;;5091621;27;20081;-83
2023/07/24 06:30:57;;;;;;;9.73;6.68;;;18.20;99.90;;;;;;5107678;27;20065;-83
2023/07/24 06:33:23;;;;;;;9.90;6.93;;;18.30;99.90;;;;;;5109649;27;20038;-83
2023/07/24 06:35:50;;;;;;;10.82;7.03;;;18.30;99.90;;;;;;5088810;27;20042;-83
2023/07/24 06:38:16;;;;;;;8.98;7.03;;;18.50;99.90;;;;;;5104055;27;20118;-83
2023/07/24 06:40:42;;;;;;;10.70;7.45;;;18.50;99.90;;;;;;5091462;27;20166;-83
2023/07/24 06:43:07;;;;;;;10.60;7.05;;;18.60;99.90;;;;;;5107761;27;20119;-83
2023/07/24 06:45:33;;;;;;;9.45;6.90;;;18.70;99.90;;;;;;5090576;27;20055;-83
2023/07/24 06:47:59;;;;;;;8.77;6.32;;;18.80;99.90;;;;;;5090664;27;20042;-83
2023/07/24 06:50:24;;;;;;;8.52;6.57;;;18.80;99.90;;;;;;5126328;27;20462;-83
2023/07/24 06:52:51;;;;;;;10.23;6.80;;;18.80;99.90;;;;;;5105061;27;20042;-83
2023/07/24 06:55:20;;;;;;;10.02;7.20;;;18.80;99.90;;;;;;5089316;27;20054;-83
2023/07/24 06:57:46;;;;;;;9.45;6.05;;;18.90;99.90;;;;;;5105362;27;20398;-83
2023/07/24 07:00:12;;;;;;;11.82;6.38;;;18.90;99.90;;;;;;5095740;27;20040;-83
2023/07/24 07:02:40;;;;;;;10.50;6.70;;;18.90;99.90;;;;;;5095035;27;20047;-83
2023/07/24 07:05:06;;;;;;;12.57;6.80;;;19.00;99.90;;;;;;5091028;27;20043;-83
2023/07/24 07:07:32;;;;;;;7.93;5.85;;;19.00;99.90;;;;;;5102014;27;20046;-83
2023/07/24 07:09:58;;;;;;;9.95;6.38;;;19.00;99.90;;;;;;5108281;27;20066;-83
2023/07/24 07:12:24;;;;;;;7.97;5.88;;;19.20;99.90;;;;;;5084093;27;20067;-83
2023/07/24 07:14:49;;;;;;;9.18;6.45;;;19.30;99.90;;;;;;5105042;27;20071;-83
2023/07/24 07:17:15;;;;;;;12.02;6.38;;;19.20;99.90;;;;;;5111777;27;20043;-84
2023/07/24 07:19:41;;;;;;;11.98;6.90;;;19.40;99.90;;;;;;5090964;27;20457;-83
2023/07/24 07:22:06;;;;;;;11.05;6.57;;;19.40;99.90;;;;;;5115064;27;20033;-84
2023/07/24 07:24:32;;;;;;;11.95;6.88;;;19.50;99.90;;;;;;5102154;27;20063;-83
2023/07/24 07:26:58;;;;;;;9.93;6.68;;;19.30;99.90;;;;;;5110354;27;20042;-83
2023/07/24 07:29:24;;;;;;;12.88;6.88;;;19.50;99.90;;;;;;5096350;27;20039;-83
2023/07/24 07:31:50;;;;;;;10.70;6.78;;;19.40;99.90;;;;;;5105519;27;20072;-84
2023/07/24 07:34:16;;;;;;;12.80;7.20;;;19.50;99.90;;;;;;5087055;27;20523;-83
2023/07/24 07:36:41;;;;;;;10.32;6.97;;;19.40;99.90;;;;;;5126663;27;20035;-83
2023/07/24 07:39:07;;;;;;;12.23;6.55;;;19.50;99.90;;;;;;5087082;27;20030;-83
2023/07/24 07:41:32;;;;;;;12.50;7.28;;;19.40;99.90;;;;;;5104169;27;20474;-84
2023/07/24 07:43:58;;;;;;;12.20;6.88;;;19.50;99.90;;;;;;5086612;27;20062;-83
2023/07/24 07:46:24;;;;;;;10.02;6.80;;;19.50;99.90;;;;;;5086424;27;20431;-83
2023/07/24 07:48:49;;;;;;;12.52;7.30;;;19.50;99.90;;;;;;5092912;27;20438;-83
2023/07/24 07:51:15;;;;;;;15.68;6.55;;;19.60;99.90;;;;;;5131298;27;20150;-84
2023/07/24 07:53:41;;;;;;;13.70;7.28;;;19.60;99.90;;;;;;5089693;27;20189;-84
2023/07/24 07:56:07;;;;;;;11.98;6.93;;;19.60;99.90;;;;;;5098904;27;20039;-83
2023/07/24 07:58:33;;;;;;;11.43;6.50;;;19.80;99.90;;;;;;5094674;27;20042;-84
2023/07/24 08:01:06;;;;;;;11.88;6.43;;;19.70;99.90;;;;;;5115851;27;20032;-84
2023/07/24 08:03:32;;;;;;;9.63;6.40;;;19.60;99.90;;;;;;5093546;27;20043;-83
2023/07/24 08:06:01;;;;;;;11.25;6.50;;;19.90;99.90;;;;;;5105645;27;20058;-84
2023/07/24 08:08:27;;;;;;;14.02;7.25;;;19.80;99.90;;;;;;5105700;27;20142;-84
2023/07/24 08:10:56;;;;;;;10.10;5.93;;;19.90;99.90;;;;;;5092219;27;20118;-84
2023/07/24 08:13:22;;;;;;;10.57;6.38;;;19.90;99.90;;;;;;5106503;27;20038;-83
2023/07/24 08:15:49;;;;;;;9.10;5.75;;;19.90;99.90;;;;;;5098623;27;20513;-83
2023/07/24 08:18:17;;;;;;;10.65;6.45;;;19.90;99.90;;;;;;5092380;27;20040;-84
2023/07/24 08:20:42;;;;;;;9.05;5.43;;;20.10;99.90;;;;;;5090743;27;20161;-83
2023/07/24 08:23:08;;;;;;;9.07;5.72;;;20.40;99.90;;;;;;5104741;27;20106;-84
2023/07/24 08:25:34;;;;;;;13.40;6.28;;;20.60;99.90;;;;;;5107916;27;20042;-84
2023/07/24 08:27:59;;;;;;;12.25;6.65;;;20.60;99.90;;;;;;5110822;27;20035;-83
2023/07/24 08:30:25;;;;;;;10.63;6.30;;;20.60;99.90;;;;;;5079457;27;20375;-84
2023/07/24 08:32:51;;;;;;;13.05;6.43;;;20.50;99.90;;;;;;5110527;27;20035;-83
2023/07/24 08:35:16;;;;;;;9.13;5.50;;;20.60;99.90;;;;;;5104738;27;20191;-83
2023/07/24 08:37:44;;;;;;;13.30;6.78;;;20.70;99.90;;;;;;5105086;27;20071;-84
2023/07/24 08:40:12;;;;;;;12.10;6.53;;;20.50;99.90;;;;;;5106990;27;20082;-83
2023/07/24 08:42:43;;;;;;;14.15;7.18;;;20.60;99.90;;;;;;5091271;27;20078;-83
2023/07/24 08:45:14;;;;;;;11.80;6.40;;;20.50;99.90;;;;;;5101578;27;20047;-83
2023/07/24 08:47:43;;;;;;;12.70;7.32;;;20.70;99.90;;;;;;5128182;27;20061;-83
2023/07/24 08:50:11;;;;;;;10.82;7.10;;;20.50;99.90;;;;;;5092687;27;20034;-83
2023/07/24 08:52:40;;;;;;;11.27;6.60;;;20.60;99.90;;;;;;5093048;27;20036;-83
2023/07/24 08:55:06;;;;;;;12.20;6.80;;;20.70;99.90;;;;;;5106985;27;20506;-83
2023/07/24 08:57:32;;;;;;;11.73;6.78;;;20.80;99.90;;;;;;5128654;27;20484;-83
2023/07/24 08:59:58;;;;;;;11.63;6.45;;;21.10;99.90;;;;;;5104382;27;20074;-84
2023/07/24 09:02:24;;;;;;;9.93;6.43;;;21.40;99.90;;;;;;5087600;27;20031;-83
2023/07/24 09:04:49;;;;;;;11.00;6.38;;;21.60;99.90;;;;;;5113224;27;20026;-84
2023/07/24 09:07:15;;;;;;;12.70;5.78;;;21.60;99.90;;;;;;5091100;27;20039;-83
2023/07/24 09:09:48;;;;;;;10.85;6.32;;;21.70;99.90;;;;;;5091031;27;20085;-83
2023/07/24 09:12:15;;;;;;;11.15;6.45;;;21.70;99.90;;;;;;5087454;27;20072;-83
2023/07/24 09:14:41;;;;;;;10.73;6.32;;;21.90;99.90;;;;;;5098175;27;20807;-84
2023/07/24 09:17:11;;;;;;;13.38;6.20;;;22.20;99.90;;;;;;5107990;27;20088;-84
2023/07/24 09:19:37;;;;;;;13.57;6.60;;;22.30;99.90;;;;;;5088159;27;20579;-84
2023/07/24 09:22:19;;;;;;;11.55;6.20;;;22.20;99.90;;;;;;5109637;27;20040;-84
2023/07/24 09:24:58;;;;;;;9.73;6.50;;;21.70;99.90;;;;;;5104096;27;20047;-84
2023/07/24 09:27:30;;;;;;;11.05;6.05;;;21.70;99.90;;;;;;5111106;27;20486;-83
2023/07/24 09:29:56;;;;;;;9.85;6.30;;;21.50;99.90;;;;;;5084115;27;20047;-83
2023/07/24 09:32:26;;;;;;;10.63;6.40;;;21.60;99.90;;;;;;5109542;27;20393;-83
2023/07/24 09:34:54;;;;;;;12.40;6.30;;;21.50;99.90;;;;;;5083865;27;20043;-83
2023/07/24 09:37:37;;;;;;;11.25;6.32;;;21.40;99.90;;;;;;5105890;27;20386;-84
2023/07/24 09:40:14;;;;;;;9.80;5.60;;;21.90;99.90;;;;;;5088589;27;20113;-84
2023/07/24 09:42:40;;;;;;;9.93;6.10;;;21.70;99.90;;;;;;5100165;27;20062;-83
2023/07/24 09:45:08;;;;;;;9.82;5.35;;;21.20;99.90;;;;;;5083717;27;20042;-83
2023/07/24 09:47:40;;;;;;;11.48;6.10;;;21.80;99.90;;;;;;5108960;27;20063;-84
2023/07/24 09:50:07;;;;;;;8.85;5.38;;;22.40;99.90;;;;;;5091289;27;20775;-83
2023/07/24 09:52:36;;;;;;;9.38;5.43;;;22.30;99.90;;;;;;5103705;27;20042;-84
2023/07/24 09:55:17;;;;;;;8.02;5.18;;;22.60;99.90;;;;;;5088625;27;20065;-83
2023/07/24 09:57:46;;;;;;;8.93;5.30;;;22.60;99.90;;;;;;5122636;27;20039;-85
2023/07/24 10:00:12;;;;;;;9.50;5.07;;;22.20;99.90;;;;;;5088439;27;20037;-83
2023/07/24 10:02:39;;;;;;;10.68;5.07;;;21.70;99.90;;;;;;5105905;27;20252;-84
2023/07/24 10:05:06;;;;;;;9.98;5.57;;;22.40;99.90;;;;;;5089155;27;20038;-83
2023/07/24 10:07:32;;;;;;;7.75;5.00;;;22.70;99.90;;;;;;5107502;27;20133;-83
2023/07/24 10:09:58;;;;;;;7.85;5.03;;;23.10;99.90;;;;;;5100598;27;20114;-83
2023/07/24 10:12:27;;;;;;;9.68;4.90;;;23.50;99.90;;;;;;5090975;27;20233;-84
2023/07/24 10:14:54;;;;;;;9.57;4.40;;;23.10;99.90;;;;;;5091786;27;20076;-84
2023/07/24 10:17:41;;;;;;;10.50;5.78;;;23.20;99.90;;;;;;5083568;27;20040;-83
2023/07/24 10:20:09;;;;;;;9.05;4.95;;;22.20;99.90;;;;;;5125411;27;20035;-83
2023/07/24 10:22:41;;;;;;;8.65;5.50;;;21.90;99.90;;;;;;5092434;27;20414;-83
2023/07/24 10:25:08;;;;;;;8.30;5.32;;;21.90;99.90;;;;;;5109820;27;20443;-84
2023/07/24 10:27:41;;;;;;;11.05;5.45;;;22.30;99.90;;;;;;5107398;27;20139;-83
2023/07/24 10:30:08;;;;;;;10.40;5.38;;;22.00;99.90;;;;;;5121825;27;20481;-84
2023/07/24 10:32:33;;;;;;;7.72;5.20;;;22.10;99.90;;;;;;5103630;27;20120;-84
2023/07/24 10:35:09;;;;;;;9.68;4.75;;;22.40;99.90;;;;;;5102618;27;20828;-84
2023/07/24 10:37:36;;;;;;;6.75;4.80;;;22.70;99.90;;;;;;5085345;27;20050;-84
2023/07/24 10:40:04;;;;;;;6.32;4.82;;;23.20;99.90;;;;;;5106676;27;20039;-84
2023/07/24 10:42:33;;;;;;;10.23;5.13;;;23.30;99.90;;;;;;5104733;27;20117;-83
2023/07/24 10:45:11;;;;;;;11.63;4.63;;;23.60;99.90;;;;;;5085409;28;20040;-84
2023/07/24 10:47:37;;;;;;;6.45;4.28;;;23.50;99.90;;;;;;5085730;28;20066;-83
2023/07/24 10:50:03;;;;;;;8.85;5.45;;;23.20;99.90;;;;;;5082595;27;20055;-83
2023/07/24 10:52:33;;;;;;;8.73;4.65;;;22.50;99.90;;;;;;5107681;27;20043;-84
2023/07/24 10:55:06;;;;;;;12.93;5.15;;;22.60;99.90;;;;;;5089562;28;20564;-84
2023/07/24 10:57:32;;;;;;;8.38;5.32;;;23.30;99.90;;;;;;5103591;28;20482;-83
2023/07/24 10:59:58;;;;;;;9.27;4.72;;;23.50;99.90;;;;;;5091482;28;20370;-84
2023/07/24 11:02:24;;;;;;;7.57;4.22;;;23.80;99.90;;;;;;5084771;28;20566;-83
2023/07/24 11:04:50;;;;;;;12.02;4.00;;;23.60;99.90;;;;;;5100864;28;20547;-84
2023/07/24 11:07:15;;;;;;;8.30;3.97;;;23.50;99.90;;;;;;5094714;28;20352;-84
2023/07/24 11:09:41;;;;;;;7.82;4.63;;;23.30;99.90;;;;;;5087767;28;20062;-83
2023/07/24 11:12:14;;;;;;;7.15;4.55;;;22.80;99.90;;;;;;5087738;28;20039;-83
2023/07/24 11:14:50;;;;;;;7.90;5.13;;;22.30;99.90;;;;;;5101972;28;20046;-84
2023/07/24 11:17:16;;;;;;;7.38;4.30;;;22.10;99.90;;;;;;5099150;28;20050;-84
2023/07/24 11:19:42;;;;;;;8.13;4.30;;;22.30;99.90;;;;;;5092647;28;20032;-84
2023/07/24 11:22:08;;;;;;;7.00;4.78;;;22.30;99.90;;;;;;5081658;28;20031;-83
2023/07/24 11:24:46;;;;;;;8.15;4.53;;;22.40;99.90;;;;;;5097648;27;20477;-84
2023/07/24 11:27:16;;;;;;;5.63;4.72;;;22.70;99.90;;;;;;5111139;27;20071;-84
2023/07/24 11:29:50;;;;;;;6.18;4.40;;;22.90;99.90;;;;;;5101411;27;20034;-83
2023/07/24 11:32:20;;;;;;;8.23;5.18;;;23.10;99.90;;;;;;5093460;27;20127;-84
2023/07/24 11:34:48;;;;;;;9.60;4.85;;;23.20;99.90;;;;;;5107088;27;20044;-83
2023/07/24 11:37:18;;;;;;;7.45;4.93;;;23.20;99.90;;;;;;5110541;27;20490;-83
2023/07/24 11:39:58;;;;;;;6.82;4.82;;;23.00;99.90;;;;;;5079326;28;20475;-83
2023/07/24 11:42:27;;;;;;;8.00;5.28;;;23.10;99.90;;;;;;5085770;27;20493;-84
2023/07/24 11:44:53;;;;;;;7.63;4.57;;;23.00;99.90;;;;;;5090255;27;20158;-83
2023/07/24 11:47:19;;;;;;;8.05;4.90;;;22.80;99.90;;;;;;5098513;27;20088;-84
2023/07/24 11:49:56;;;;;;;8.93;4.97;;;24.00;99.90;;;;;;5131491;27;20038;-84
2023/07/24 11:52:25;;;;;;;9.52;5.07;;;24.50;99.90;;;;;;5088196;27;20039;-85
2023/07/24 11:55:00;;;;;;;8.38;4.80;;;24.40;99.90;;;;;;5099647;27;20794;-84
2023/07/24 11:57:36;;;;;;;8.27;5.03;;;23.70;99.90;;;;;;5096264;27;20362;-84
2023/07/24 12:00:03;;;;;;;9.18;5.78;;;22.90;99.90;;;;;;5109867;27;20061;-84
2023/07/24 12:02:29;;;;;;;10.10;5.93;;;23.10;99.90;;;;;;5129304;27;20470;-83
2023/07/24 12:04:58;;;;;;;8.98;5.15;;;23.10;99.90;;;;;;5090249;27;20118;-83
2023/07/24 12:07:33;;;;;;;10.82;5.60;;;23.00;99.90;;;;;;5094262;27;20584;-84
2023/07/24 12:10:04;;;;;;;7.55;4.70;;;23.20;99.90;;;;;;5093632;27;20375;-84
2023/07/24 12:12:48;;;;;;;15.30;6.10;;;23.10;99.90;;;;;;5094414;27;20099;-84
2023/07/24 12:15:14;;;;;;;10.55;5.35;;;23.20;99.90;;;;;;5084580;27;20459;-84
2023/07/24 12:17:41;;;;;;;10.43;4.93;;;23.90;99.90;;;;;;5107227;27;20035;-84
2023/07/24 12:20:11;;;;;;;7.28;5.10;;;24.30;99.90;;;;;;5095104;27;20103;-82
2023/07/24 12:22:38;;;;;;;9.43;4.93;;;24.30;99.90;;;;;;5081128;27;20478;-84
2023/07/24 12:25:05;;;;;;;10.63;5.78;;;23.60;99.90;;;;;;5107192;27;20046;-83
2023/07/24 12:27:34;;;;;;;7.32;4.72;;;23.30;99.90;;;;;;5108838;27;20114;-84
2023/07/24 12:30:00;;;;;;;5.57;4.40;;;22.70;99.90;;;;;;5112591;27;20030;-84
2023/07/24 12:32:26;;;;;;;7.15;4.60;;;22.00;99.90;;;;;;5106740;27;20116;-84
2023/07/24 12:34:53;;;;;;;8.52;5.20;;;21.40;99.90;;;;;;5098467;27;20038;-83
2023/07/24 12:37:19;;;;;;;7.95;5.32;;;21.00;99.90;;;;;;5111585;27;20212;-83
2023/07/24 12:39:46;;;;;;;7.68;5.30;;;20.80;99.90;;;;;;5112643;27;20190;-83